Time;durP1;ratioP1;P1;durP2;ratioP2;P2;SDS_P1;SDS_P2;PMS_P1;PMS_P2;Temp;Humidity;BMP_temperature;BMP_pressure;BME280_temperature;BME280_humidity;BME280_pressure;Samples;Min_cycle;Max_cycle;Signal;HPM_P1;HPM_P2
2022/11/13 00:01:21;;;;;;;33.10;18.55;;;;;;;;;;5071954;28;20028;-81
2022/11/13 00:03:50;;;;;;;28.27;16.85;;;;;;;;;;5042388;28;20012;-78
2022/11/13 00:06:17;;;;;;;34.08;19.38;;;;;;;;;;5082833;28;20025;-78
2022/11/13 00:08:49;;;;;;;29.10;16.75;;;;;;;;;;5070645;28;20024;-77
2022/11/13 00:11:19;;;;;;;28.70;16.73;;;;;;;;;;5050164;28;20029;-78
2022/11/13 00:13:46;;;;;;;32.67;17.73;;;;;;;;;;5049979;28;20028;-78
2022/11/13 00:16:24;;;;;;;30.55;17.77;;;;;;;;;;5059820;28;20081;-78
2022/11/13 00:18:50;;;;;;;29.73;17.02;;;;;;;;;;5049370;28;20407;-79
2022/11/13 00:21:23;;;;;;;32.13;17.58;;;;;;;;;;5067704;28;20028;-78
2022/11/13 00:23:50;;;;;;;30.73;17.58;;;;;;;;;;5049936;28;20021;-78
2022/11/13 00:26:20;;;;;;;29.95;17.63;;;;;;;;;;5070387;28;20016;-78
2022/11/13 00:28:46;;;;;;;29.73;16.58;;;;;;;;;;5087692;28;20056;-78
2022/11/13 00:31:13;;;;;;;34.50;18.63;;;;;;;;;;5076106;28;20037;-78
2022/11/13 00:33:39;;;;;;;32.90;18.05;;;;;;;;;;5062257;28;20087;-76
2022/11/13 00:36:38;;;;;;;32.80;17.67;;;;;;;;;;5068068;28;20376;-81
2022/11/13 00:39:13;;;;;;;45.15;23.17;;;;;;;;;;4992670;28;20039;-78
2022/11/13 00:41:39;;;;;;;47.63;24.80;;;;;;;;;;5036958;28;20067;-77
2022/11/13 00:44:05;;;;;;;42.72;22.58;;;;;;;;;;5040771;28;20103;-77
2022/11/13 00:46:31;;;;;;;51.53;23.17;;;;;;;;;;5049859;28;20394;-77
2022/11/13 00:48:57;;;;;;;50.80;23.67;;;;;;;;;;5052408;28;20090;-79
2022/11/13 00:51:24;;;;;;;49.95;23.73;;;;;;;;;;5052634;28;20074;-77
2022/11/13 00:53:50;;;;;;;44.58;23.30;;;;;;;;;;5048041;28;20086;-76
2022/11/13 00:56:16;;;;;;;88.68;24.33;;;;;;;;;;5052235;28;20111;-77
2022/11/13 00:58:42;;;;;;;68.72;23.75;;;;;;;;;;5059084;28;20029;-78
2022/11/13 01:01:09;;;;;;;80.80;25.65;;;;;;;;;;5035399;28;20074;-77
2022/11/13 01:03:39;;;;;;;54.83;23.60;;;;;;;;;;5058414;28;20029;-77
2022/11/13 01:06:09;;;;;;;54.33;23.58;;;;;;;;;;5042330;28;20542;-80
2022/11/13 01:08:35;;;;;;;88.18;26.52;;;;;;;;;;5052137;28;20157;-77
2022/11/13 01:11:07;;;;;;;69.60;25.65;;;;;;;;;;5060277;28;20025;-77
2022/11/13 01:13:33;;;;;;;71.22;24.75;;;;;;;;;;5061351;28;20025;-79
2022/11/13 01:15:59;;;;;;;78.90;25.90;;;;;;;;;;5068110;28;20031;-79
2022/11/13 01:18:26;;;;;;;66.20;24.50;;;;;;;;;;5052850;28;20032;-80
2022/11/13 01:20:52;;;;;;;50.22;22.70;;;;;;;;;;5047855;28;20095;-79
2022/11/13 01:23:18;;;;;;;58.50;22.73;;;;;;;;;;5057449;28;20051;-78
2022/11/13 01:25:44;;;;;;;70.50;20.88;;;;;;;;;;5056422;28;20029;-78
2022/11/13 01:28:10;;;;;;;97.50;23.17;;;;;;;;;;5072618;23;20458;-78
2022/11/13 01:30:41;;;;;;;134.93;23.70;;;;;;;;;;5038569;28;20041;-79
2022/11/13 01:33:07;;;;;;;257.63;32.88;;;;;;;;;;5054859;28;20443;-77
2022/11/13 01:35:35;;;;;;;243.52;29.30;;;;;;;;;;5054915;28;20082;-78
2022/11/13 01:38:01;;;;;;;132.18;24.05;;;;;;;;;;5047065;28;20434;-78
2022/11/13 01:40:27;;;;;;;154.82;24.80;;;;;;;;;;5053703;28;20067;-78
2022/11/13 01:42:54;;;;;;;207.77;27.42;;;;;;;;;;5061512;28;20044;-77
2022/11/13 01:45:38;;;;;;;88.68;22.20;;;;;;;;;;5052532;28;20024;-78
2022/11/13 01:48:08;;;;;;;125.32;24.00;;;;;;;;;;5055235;28;20095;-76
2022/11/13 01:50:34;;;;;;;99.75;21.60;;;;;;;;;;5056015;28;20493;-77
2022/11/13 01:53:03;;;;;;;57.30;20.85;;;;;;;;;;5043415;28;20117;-77
2022/11/13 01:55:29;;;;;;;65.90;18.52;;;;;;;;;;5053780;28;20094;-76
2022/11/13 01:57:56;;;;;;;94.70;22.88;;;;;;;;;;5058949;28;20019;-74
2022/11/13 02:00:22;;;;;;;29.70;19.23;;;;;;;;;;5051987;28;20103;-78
2022/11/13 02:02:50;;;;;;;77.03;20.63;;;;;;;;;;5067006;28;20025;-78
2022/11/13 02:05:19;;;;;;;160.80;26.13;;;;;;;;;;5055437;28;20033;-78
2022/11/13 02:07:46;;;;;;;91.50;21.90;;;;;;;;;;5051706;28;20017;-81
2022/11/13 02:10:12;;;;;;;241.57;28.38;;;;;;;;;;5061785;28;20020;-78
2022/11/13 02:12:40;;;;;;;84.80;23.73;;;;;;;;;;5051685;28;20021;-78
2022/11/13 02:15:07;;;;;;;164.55;24.90;;;;;;;;;;5069480;28;20020;-77
2022/11/13 02:17:37;;;;;;;86.93;22.92;;;;;;;;;;5054807;28;20025;-78
2022/11/13 02:20:04;;;;;;;167.68;27.25;;;;;;;;;;5051838;28;20055;-78
2022/11/13 02:22:30;;;;;;;35.53;20.42;;;;;;;;;;5055384;28;20024;-78
2022/11/13 02:25:04;;;;;;;45.88;22.95;;;;;;;;;;5058918;28;20056;-78
2022/11/13 02:27:32;;;;;;;97.55;21.67;;;;;;;;;;5069081;28;20024;-78
2022/11/13 02:29:58;;;;;;;39.92;20.08;;;;;;;;;;5054833;28;20483;-79
2022/11/13 02:32:24;;;;;;;37.97;20.17;;;;;;;;;;5062086;28;20510;-78
2022/11/13 02:34:50;;;;;;;31.80;18.33;;;;;;;;;;5051323;28;20029;-78
2022/11/13 02:37:16;;;;;;;36.40;19.92;;;;;;;;;;5053603;28;20102;-78
2022/11/13 02:39:42;;;;;;;33.40;18.27;;;;;;;;;;5056979;28;20028;-78
2022/11/13 02:42:08;;;;;;;31.08;17.63;;;;;;;;;;5051488;28;20035;-77
2022/11/13 02:44:34;;;;;;;53.28;20.13;;;;;;;;;;5050676;28;20560;-78
2022/11/13 02:47:00;;;;;;;31.85;18.67;;;;;;;;;;5051366;28;20021;-76
2022/11/13 02:49:26;;;;;;;45.70;19.52;;;;;;;;;;5068735;28;20025;-75
2022/11/13 02:51:52;;;;;;;32.88;19.08;;;;;;;;;;5058425;28;20490;-77
2022/11/13 02:54:18;;;;;;;30.13;17.95;;;;;;;;;;5063031;28;20045;-78
2022/11/13 02:56:44;;;;;;;34.05;19.77;;;;;;;;;;5054295;28;20024;-77
2022/11/13 02:59:10;;;;;;;33.90;19.40;;;;;;;;;;5050882;28;20174;-77
2022/11/13 03:01:36;;;;;;;31.38;18.45;;;;;;;;;;5055861;28;20023;-77
2022/11/13 03:04:03;;;;;;;31.40;18.33;;;;;;;;;;5051313;28;20057;-77
2022/11/13 03:06:29;;;;;;;29.38;17.45;;;;;;;;;;5052005;28;20025;-78
2022/11/13 03:08:55;;;;;;;28.85;18.08;;;;;;;;;;5047657;28;20035;-77
2022/11/13 03:11:21;;;;;;;27.25;17.23;;;;;;;;;;5052058;28;20025;-79
2022/11/13 03:13:47;;;;;;;28.80;16.60;;;;;;;;;;5051317;28;20104;-77
2022/11/13 03:16:14;;;;;;;27.35;17.38;;;;;;;;;;5051436;28;20029;-77
2022/11/13 03:18:40;;;;;;;27.70;16.63;;;;;;;;;;5064146;28;20032;-77
2022/11/13 03:21:07;;;;;;;28.13;16.38;;;;;;;;;;5056037;28;20025;-80
2022/11/13 03:23:33;;;;;;;23.83;15.77;;;;;;;;;;5051015;28;20024;-77
2022/11/13 03:26:04;;;;;;;26.25;16.33;;;;;;;;;;5058910;28;20025;-77
2022/11/13 03:28:30;;;;;;;31.07;16.83;;;;;;;;;;5060252;28;20025;-79
2022/11/13 03:30:56;;;;;;;28.88;15.70;;;;;;;;;;5053940;28;20086;-77
2022/11/13 03:33:22;;;;;;;24.48;14.18;;;;;;;;;;5055867;28;20085;-77
2022/11/13 03:35:48;;;;;;;26.13;14.95;;;;;;;;;;5071896;28;20052;-75
2022/11/13 03:38:14;;;;;;;24.85;13.90;;;;;;;;;;5062415;28;20446;-77
2022/11/13 03:40:42;;;;;;;23.23;13.73;;;;;;;;;;5053756;28;20173;-78
2022/11/13 03:43:09;;;;;;;24.75;15.00;;;;;;;;;;5055741;28;20104;-77
2022/11/13 03:45:37;;;;;;;22.60;12.57;;;;;;;;;;5056164;28;20110;-77
2022/11/13 03:48:03;;;;;;;20.92;13.43;;;;;;;;;;5048352;28;20028;-77
2022/11/13 03:50:29;;;;;;;20.30;12.30;;;;;;;;;;5062266;28;20517;-77
2022/11/13 03:52:55;;;;;;;22.02;12.98;;;;;;;;;;5057291;28;20037;-78
2022/11/13 03:55:21;;;;;;;21.17;13.48;;;;;;;;;;5068297;28;20025;-78
2022/11/13 03:57:47;;;;;;;21.55;14.18;;;;;;;;;;5053034;28;20391;-78
2022/11/13 04:00:13;;;;;;;20.15;12.82;;;;;;;;;;5050345;28;20025;-78
2022/11/13 04:02:40;;;;;;;22.92;13.45;;;;;;;;;;5063439;28;20031;-76
2022/11/13 04:05:06;;;;;;;21.42;12.57;;;;;;;;;;5055287;28;20103;-76
2022/11/13 04:07:32;;;;;;;24.35;14.02;;;;;;;;;;5067043;28;20080;-76
2022/11/13 04:09:58;;;;;;;23.17;12.88;;;;;;;;;;5057627;28;20489;-77
2022/11/13 04:12:24;;;;;;;19.20;12.23;;;;;;;;;;5060936;28;20024;-77
2022/11/13 04:14:50;;;;;;;24.15;14.45;;;;;;;;;;5064897;28;20028;-79
2022/11/13 04:17:16;;;;;;;18.98;12.15;;;;;;;;;;5053928;28;20347;-77
2022/11/13 04:19:42;;;;;;;23.40;13.80;;;;;;;;;;5066434;28;20025;-78
2022/11/13 04:22:09;;;;;;;22.05;12.88;;;;;;;;;;5058795;28;20471;-78
2022/11/13 04:24:35;;;;;;;25.60;14.27;;;;;;;;;;5059483;28;20467;-77
2022/11/13 04:27:04;;;;;;;20.60;12.95;;;;;;;;;;5052928;28;20066;-78
2022/11/13 04:29:30;;;;;;;27.38;14.13;;;;;;;;;;5053898;28;20083;-77
2022/11/13 04:31:56;;;;;;;22.15;12.77;;;;;;;;;;5053159;28;20028;-77
2022/11/13 04:34:22;;;;;;;21.95;14.05;;;;;;;;;;5061112;28;20033;-77
2022/11/13 04:36:48;;;;;;;21.00;13.05;;;;;;;;;;5053206;28;20020;-76
2022/11/13 04:39:14;;;;;;;22.25;13.05;;;;;;;;;;5053519;28;20032;-77
2022/11/13 04:44:28;;;;;;;24.15;13.18;;;;;;;;;;5061404;28;20448;-78
2022/11/13 04:46:54;;;;;;;23.13;13.55;;;;;;;;;;5050067;28;20431;-80
2022/11/13 04:49:20;;;;;;;22.48;11.65;;;;;;;;;;5051341;28;20025;-78
2022/11/13 04:51:46;;;;;;;22.10;12.95;;;;;;;;;;5056055;28;20073;-77
2022/11/13 04:54:12;;;;;;;23.85;13.23;;;;;;;;;;5048319;28;20021;-77
2022/11/13 04:56:38;;;;;;;25.38;13.38;;;;;;;;;;5042932;28;20548;-78
2022/11/13 04:59:04;;;;;;;21.73;12.35;;;;;;;;;;5056253;28;20102;-79
2022/11/13 05:01:30;;;;;;;24.65;12.23;;;;;;;;;;5057778;28;20071;-78
2022/11/13 05:03:58;;;;;;;22.83;12.40;;;;;;;;;;5068300;28;20075;-78
2022/11/13 05:06:24;;;;;;;26.98;14.48;;;;;;;;;;5056885;28;20021;-79
2022/11/13 05:08:50;;;;;;;23.35;12.60;;;;;;;;;;5052548;28;20103;-78
2022/11/13 05:11:16;;;;;;;24.50;12.75;;;;;;;;;;5055769;28;20028;-77
2022/11/13 05:13:42;;;;;;;24.20;12.70;;;;;;;;;;5059706;28;20023;-75
2022/11/13 05:16:09;;;;;;;22.90;12.68;;;;;;;;;;5055321;28;20032;-75
2022/11/13 05:18:36;;;;;;;23.33;12.48;;;;;;;;;;5066198;28;20025;-77
2022/11/13 05:21:03;;;;;;;19.13;11.73;;;;;;;;;;5058989;28;20118;-77
2022/11/13 05:23:29;;;;;;;21.20;11.70;;;;;;;;;;5070816;28;20025;-76
2022/11/13 05:26:06;;;;;;;19.25;12.15;;;;;;;;;;5060520;28;20021;-77
2022/11/13 05:28:32;;;;;;;20.45;11.82;;;;;;;;;;5062072;28;20112;-79
2022/11/13 05:31:04;;;;;;;20.70;11.45;;;;;;;;;;5069640;28;20063;-78
2022/11/13 05:33:30;;;;;;;22.60;11.40;;;;;;;;;;5055737;28;20025;-77
2022/11/13 05:36:00;;;;;;;22.02;11.15;;;;;;;;;;5065853;28;20029;-78
2022/11/13 05:38:27;;;;;;;19.88;10.60;;;;;;;;;;5053466;28;20031;-78
2022/11/13 05:40:53;;;;;;;23.85;11.63;;;;;;;;;;5066809;28;20039;-79
2022/11/13 05:43:19;;;;;;;19.92;11.13;;;;;;;;;;5051634;28;20021;-78
2022/11/13 05:45:45;;;;;;;19.52;10.63;;;;;;;;;;5074287;28;20020;-78
2022/11/13 05:48:11;;;;;;;19.65;11.00;;;;;;;;;;5058391;23;20560;-78
2022/11/13 05:50:57;;;;;;;22.02;11.35;;;;;;;;;;5058629;28;20052;-77
2022/11/13 05:53:23;;;;;;;20.58;11.52;;;;;;;;;;5070348;28;20037;-77
2022/11/13 05:55:49;;;;;;;20.15;11.27;;;;;;;;;;5060483;28;20059;-77
2022/11/13 05:58:15;;;;;;;21.10;11.40;;;;;;;;;;5064402;28;20025;-78
2022/11/13 06:00:42;;;;;;;21.98;11.65;;;;;;;;;;5068199;28;20024;-77
2022/11/13 06:03:08;;;;;;;22.13;11.50;;;;;;;;;;5076346;28;20027;-79
2022/11/13 06:05:37;;;;;;;24.15;12.00;;;;;;;;;;5057449;28;20408;-78
2022/11/13 06:08:03;;;;;;;20.02;11.52;;;;;;;;;;5065815;28;20028;-77
2022/11/13 06:10:29;;;;;;;24.13;12.35;;;;;;;;;;5064923;28;20078;-78
2022/11/13 06:12:55;;;;;;;25.35;11.77;;;;;;;;;;5059949;28;20529;-78
2022/11/13 06:15:21;;;;;;;21.55;12.32;;;;;;;;;;5055302;28;20094;-77
2022/11/13 06:17:47;;;;;;;25.73;12.35;;;;;;;;;;5058846;28;20023;-76
2022/11/13 06:20:13;;;;;;;22.27;11.95;;;;;;;;;;5066788;28;20029;-77
2022/11/13 06:22:39;;;;;;;25.48;12.30;;;;;;;;;;5067090;28;20059;-79
2022/11/13 06:25:05;;;;;;;23.00;12.20;;;;;;;;;;5060188;28;20029;-78
2022/11/13 06:27:34;;;;;;;23.50;12.07;;;;;;;;;;5053393;28;20320;-79
2022/11/13 06:30:00;;;;;;;23.35;11.98;;;;;;;;;;5052192;28;20555;-78
2022/11/13 06:32:26;;;;;;;22.80;12.43;;;;;;;;;;5053653;28;20056;-78
2022/11/13 06:34:52;;;;;;;25.30;11.60;;;;;;;;;;5066338;28;20028;-78
2022/11/13 06:37:18;;;;;;;25.63;13.40;;;;;;;;;;5057480;28;20021;-78
2022/11/13 06:39:44;;;;;;;22.40;11.82;;;;;;;;;;5076626;28;20025;-79
2022/11/13 06:42:10;;;;;;;25.08;12.45;;;;;;;;;;5076704;28;20035;-78
2022/11/13 06:44:36;;;;;;;28.85;12.57;;;;;;;;;;5090833;28;20055;-77
2022/11/13 06:47:02;;;;;;;28.45;13.77;;;;;;;;;;5074383;28;20438;-80
2022/11/13 06:49:28;;;;;;;22.60;12.80;;;;;;;;;;5080992;28;20243;-79
2022/11/13 06:51:54;;;;;;;23.70;11.70;;;;;;;;;;5058604;28;20573;-78
2022/11/13 06:54:20;;;;;;;25.08;13.30;;;;;;;;;;5063098;28;20037;-78
2022/11/13 06:56:46;;;;;;;23.85;11.98;;;;;;;;;;5066135;28;20024;-78
2022/11/13 06:59:12;;;;;;;25.52;11.35;;;;;;;;;;5055125;28;20132;-77
2022/11/13 07:01:38;;;;;;;20.60;10.90;;;;;;;;;;5056258;28;20036;-78
2022/11/13 07:04:05;;;;;;;25.40;11.77;;;;;;;;;;5065473;28;20406;-78
2022/11/13 07:06:31;;;;;;;21.63;11.20;;;;;;;;;;5061002;28;20433;-78
2022/11/13 07:08:57;;;;;;;17.52;9.90;;;;;;;;;;5065191;28;20028;-78
2022/11/13 07:11:23;;;;;;;17.65;9.48;;;;;;;;;;5054488;28;20035;-78
2022/11/13 07:13:49;;;;;;;17.85;9.88;;;;;;;;;;5067508;28;20572;-79
2022/11/13 07:16:16;;;;;;;18.27;10.73;;;;;;;;;;5062447;28;20443;-79
2022/11/13 07:18:42;;;;;;;20.25;10.93;;;;;;;;;;5059274;28;20430;-78
2022/11/13 07:21:09;;;;;;;19.60;10.07;;;;;;;;;;5071028;28;20029;-77
2022/11/13 07:23:38;;;;;;;18.45;10.88;;;;;;;;;;5059879;28;20437;-78
2022/11/13 07:26:04;;;;;;;19.52;10.20;;;;;;;;;;5070040;28;20028;-79
2022/11/13 07:28:30;;;;;;;17.58;10.38;;;;;;;;;;5065548;28;20039;-76
2022/11/13 07:30:57;;;;;;;18.38;10.18;;;;;;;;;;5060082;28;20490;-78
2022/11/13 07:33:24;;;;;;;16.27;9.60;;;;;;;;;;5068087;28;20069;-79
2022/11/13 07:35:50;;;;;;;16.27;9.32;;;;;;;;;;5056456;28;20020;-79
2022/11/13 07:38:16;;;;;;;18.98;10.00;;;;;;;;;;5064546;28;20115;-79
2022/11/13 07:40:44;;;;;;;16.88;9.77;;;;;;;;;;5057948;28;20103;-78
2022/11/13 07:43:10;;;;;;;15.68;9.20;;;;;;;;;;5068280;28;20020;-78
2022/11/13 07:45:36;;;;;;;14.85;9.20;;;;;;;;;;5054237;28;20094;-78
2022/11/13 07:48:03;;;;;;;17.05;8.98;;;;;;;;;;5064747;28;20056;-79
2022/11/13 07:50:30;;;;;;;16.35;10.00;;;;;;;;;;5053990;28;20542;-78
2022/11/13 07:53:00;;;;;;;12.85;8.18;;;;;;;;;;5054200;28;20126;-77
2022/11/13 07:55:26;;;;;;;15.60;8.43;;;;;;;;;;5054805;28;20127;-77
2022/11/13 07:57:57;;;;;;;15.35;8.27;;;;;;;;;;5053859;28;20116;-77
2022/11/13 08:00:23;;;;;;;12.95;7.68;;;;;;;;;;5054637;28;20479;-77
2022/11/13 08:02:49;;;;;;;15.18;8.88;;;;;;;;;;5075169;28;20028;-78
2022/11/13 08:05:18;;;;;;;15.32;8.95;;;;;;;;;;5057991;28;20021;-79
2022/11/13 08:07:46;;;;;;;14.18;8.55;;;;;;;;;;5057427;28;20413;-76
2022/11/13 08:10:12;;;;;;;15.63;9.25;;;;;;;;;;5074876;28;20025;-74
2022/11/13 08:12:38;;;;;;;18.80;9.60;;;;;;;;;;5073796;28;20021;-74
2022/11/13 08:15:04;;;;;;;18.35;10.98;;;;;;;;;;5070836;28;20059;-74
2022/11/13 08:17:30;;;;;;;17.98;9.27;;;;;;;;;;5070228;28;20025;-74
2022/11/13 08:19:56;;;;;;;13.50;8.25;;;;;;;;;;5070729;28;20452;-75
2022/11/13 08:22:22;;;;;;;14.38;8.30;;;;;;;;;;5070782;28;20063;-74
2022/11/13 08:24:48;;;;;;;13.90;9.07;;;;;;;;;;5070916;28;20048;-74
2022/11/13 08:27:14;;;;;;;14.52;8.68;;;;;;;;;;5053009;28;20071;-78
2022/11/13 08:29:40;;;;;;;11.02;7.32;;;;;;;;;;5052816;28;20024;-78
2022/11/13 08:32:06;;;;;;;13.15;7.95;;;;;;;;;;5070082;28;20025;-76
2022/11/13 08:34:33;;;;;;;15.55;9.35;;;;;;;;;;5070902;28;20028;-79
2022/11/13 08:36:59;;;;;;;12.60;8.13;;;;;;;;;;5065781;28;20460;-75
2022/11/13 08:39:25;;;;;;;13.88;8.77;;;;;;;;;;5069342;28;20024;-77
2022/11/13 08:41:51;;;;;;;13.15;8.73;;;;;;;;;;5053194;28;20199;-77
2022/11/13 08:44:17;;;;;;;14.48;8.93;;;;;;;;;;5070511;28;20086;-80
2022/11/13 08:46:43;;;;;;;16.00;8.75;;;;;;;;;;5070898;28;20020;-78
2022/11/13 08:49:10;;;;;;;14.90;9.02;;;;;;;;;;5059840;28;20037;-78
2022/11/13 08:51:36;;;;;;;13.25;8.43;;;;;;;;;;5037898;28;20021;-78
2022/11/13 08:54:03;;;;;;;13.82;9.48;;;;;;;;;;5062286;28;20037;-76
2022/11/13 08:56:29;;;;;;;13.48;8.95;;;;;;;;;;5061312;28;20073;-77
2022/11/13 08:58:55;;;;;;;13.55;8.70;;;;;;;;;;5055196;28;20025;-77
2022/11/13 09:01:24;;;;;;;14.98;8.90;;;;;;;;;;5067325;28;20031;-76
2022/11/13 09:03:50;;;;;;;15.75;9.70;;;;;;;;;;5056461;28;20016;-78
2022/11/13 09:06:16;;;;;;;13.90;9.00;;;;;;;;;;5062030;28;20105;-78
2022/11/13 09:08:42;;;;;;;14.95;10.15;;;;;;;;;;5062685;28;20032;-77
2022/11/13 09:11:09;;;;;;;13.25;8.75;;;;;;;;;;5052621;28;20029;-77
2022/11/13 09:13:35;;;;;;;14.07;10.18;;;;;;;;;;5065255;28;20052;-77
2022/11/13 09:16:01;;;;;;;13.40;8.55;;;;;;;;;;5056120;28;20074;-77
2022/11/13 09:18:28;;;;;;;13.07;9.00;;;;;;;;;;5057851;28;20037;-77
2022/11/13 09:20:55;;;;;;;15.25;9.43;;;;;;;;;;5063872;28;20057;-77
2022/11/13 09:23:21;;;;;;;14.45;9.15;;;;;;;;;;5053182;28;20459;-77
2022/11/13 09:25:47;;;;;;;16.08;9.05;;;;;;;;;;5069839;28;20428;-78
2022/11/13 09:28:13;;;;;;;14.52;9.30;;;;;;;;;;5061042;28;20032;-76
2022/11/13 09:30:39;;;;;;;15.07;9.05;;;;;;;;;;5062926;28;20078;-77
2022/11/13 09:33:06;;;;;;;11.90;8.05;;;;;;;;;;5055116;28;20368;-76
2022/11/13 09:35:35;;;;;;;14.63;9.40;;;;;;;;;;5067008;28;20075;-76
2022/11/13 09:38:05;;;;;;;12.27;8.50;;;;;;;;;;5056916;28;20429;-77
2022/11/13 09:40:34;;;;;;;9.23;6.30;;;;;;;;;;5059333;28;20025;-77
2022/11/13 09:43:01;;;;;;;13.85;8.38;;;;;;;;;;5053407;28;20044;-75
2022/11/13 09:45:28;;;;;;;12.82;8.73;;;;;;;;;;5074649;28;20024;-76
2022/11/13 09:47:54;;;;;;;12.23;8.60;;;;;;;;;;5062495;28;20111;-76
2022/11/13 09:50:20;;;;;;;14.15;9.85;;;;;;;;;;5066675;28;20017;-78
2022/11/13 09:52:46;;;;;;;14.23;9.25;;;;;;;;;;5056185;28;20513;-78
2022/11/13 09:55:17;;;;;;;15.32;9.30;;;;;;;;;;5057911;28;20017;-79
2022/11/13 09:57:48;;;;;;;16.27;9.18;;;;;;;;;;5074717;28;20029;-76
2022/11/13 10:00:18;;;;;;;13.88;8.75;;;;;;;;;;5055832;28;20170;-77
2022/11/13 10:02:53;;;;;;;13.23;9.35;;;;;;;;;;5060942;28;20095;-77
2022/11/13 10:05:19;;;;;;;16.10;9.55;;;;;;;;;;5070196;28;20024;-77
2022/11/13 10:08:04;;;;;;;14.32;9.27;;;;;;;;;;5057857;28;20020;-76
2022/11/13 10:10:30;;;;;;;13.10;8.95;;;;;;;;;;5055546;28;20020;-76
2022/11/13 10:12:57;;;;;;;14.63;9.93;;;;;;;;;;5059202;28;20029;-79
2022/11/13 10:15:24;;;;;;;14.82;9.45;;;;;;;;;;5069962;28;20521;-78
2022/11/13 10:17:53;;;;;;;16.67;10.15;;;;;;;;;;5054965;28;20039;-78
2022/11/13 10:20:22;;;;;;;15.80;10.68;;;;;;;;;;5063766;28;20025;-78
2022/11/13 10:22:55;;;;;;;16.67;10.63;;;;;;;;;;5066991;28;20020;-79
2022/11/13 10:25:22;;;;;;;13.85;9.38;;;;;;;;;;5056930;28;20063;-78
2022/11/13 10:27:53;;;;;;;14.75;9.80;;;;;;;;;;5052649;28;20016;-75
2022/11/13 10:30:19;;;;;;;14.57;9.60;;;;;;;;;;5062521;28;20514;-82
2022/11/13 10:32:45;;;;;;;14.43;9.45;;;;;;;;;;5051174;28;20017;-81
2022/11/13 10:35:17;;;;;;;14.70;9.00;;;;;;;;;;5069915;28;20025;-79
2022/11/13 10:37:54;;;;;;;14.95;9.23;;;;;;;;;;5056018;28;20021;-80
2022/11/13 10:40:33;;;;;;;13.40;9.25;;;;;;;;;;5062836;28;20028;-77
2022/11/13 10:43:27;;;;;;;13.93;8.57;;;;;;;;;;5053194;28;20024;-78
2022/11/13 10:45:56;;;;;;;14.35;9.32;;;;;;;;;;5025135;28;20028;-77
2022/11/13 10:48:23;;;;;;;16.08;9.48;;;;;;;;;;5067159;28;20056;-77
2022/11/13 10:50:52;;;;;;;12.38;8.57;;;;;;;;;;5054076;28;20849;-78
2022/11/13 10:53:19;;;;;;;15.88;9.60;;;;;;;;;;5054112;28;20396;-78
2022/11/13 10:55:45;;;;;;;12.32;9.00;;;;;;;;;;5054558;28;20406;-77
2022/11/13 10:58:18;;;;;;;12.05;8.43;;;;;;;;;;5072091;28;20439;-77
2022/11/13 11:00:48;;;;;;;14.77;8.77;;;;;;;;;;5054569;28;20024;-78
2022/11/13 11:03:19;;;;;;;14.55;8.80;;;;;;;;;;5072914;28;20028;-77
2022/11/13 11:05:55;;;;;;;14.05;8.73;;;;;;;;;;5048165;28;20108;-78
2022/11/13 11:08:23;;;;;;;14.75;9.25;;;;;;;;;;5061476;28;20032;-78
2022/11/13 11:13:42;;;;;;;13.00;9.32;;;;;;;;;;5041499;28;20507;-77
2022/11/13 11:16:08;;;;;;;14.60;9.05;;;;;;;;;;5072420;28;20100;-77
2022/11/13 11:18:40;;;;;;;13.20;8.93;;;;;;;;;;5072017;28;20029;-79
2022/11/13 11:21:09;;;;;;;15.35;9.32;;;;;;;;;;5056160;28;20025;-78
2022/11/13 11:23:38;;;;;;;16.17;10.30;;;;;;;;;;5072655;28;20024;-78
2022/11/13 11:26:36;;;;;;;14.63;9.52;;;;;;;;;;5054551;28;20667;-78
2022/11/13 11:29:21;;;;;;;14.68;10.02;;;;;;;;;;4984951;28;20470;-77
2022/11/13 11:31:51;;;;;;;15.95;10.77;;;;;;;;;;5057422;28;20382;-79
2022/11/13 11:34:20;;;;;;;16.70;9.65;;;;;;;;;;5054377;28;20394;-77
2022/11/13 11:36:52;;;;;;;13.43;9.38;;;;;;;;;;5051336;28;20059;-77
2022/11/13 11:39:31;;;;;;;16.25;11.07;;;;;;;;;;5050742;28;20029;-77
2022/11/13 11:42:32;;;;;;;16.70;10.68;;;;;;;;;;5071779;28;20025;-77
2022/11/13 11:45:10;;;;;;;15.30;10.40;;;;;;;;;;4956469;28;20031;-79
2022/11/13 11:47:36;;;;;;;17.77;11.27;;;;;;;;;;5025832;28;20031;-78
2022/11/13 11:50:04;;;;;;;15.45;10.73;;;;;;;;;;5064555;28;20029;-80
2022/11/13 11:52:45;;;;;;;19.13;11.65;;;;;;;;;;5062648;28;20031;-78
2022/11/13 11:55:25;;;;;;;17.08;11.75;;;;;;;;;;5050595;28;20516;-77
2022/11/13 11:58:01;;;;;;;15.63;10.77;;;;;;;;;;5051148;28;20033;-78
2022/11/13 12:00:30;;;;;;;18.00;11.50;;;;;;;;;;5061932;28;20067;-77
2022/11/13 12:03:15;;;;;;;21.17;11.75;;;;;;;;;;5058427;28;20099;-77
2022/11/13 12:05:49;;;;;;;15.45;10.55;;;;;;;;;;5040306;28;20074;-78
2022/11/13 12:08:33;;;;;;;17.48;11.65;;;;;;;;;;5062397;28;20044;-74
2022/11/13 12:11:06;;;;;;;18.33;12.13;;;;;;;;;;5053433;28;20025;-77
2022/11/13 12:13:53;;;;;;;16.25;11.27;;;;;;;;;;5053131;28;20020;-77
2022/11/13 12:16:37;;;;;;;17.02;11.55;;;;;;;;;;5048583;28;20033;-77
2022/11/13 12:19:30;;;;;;;20.27;12.70;;;;;;;;;;5053045;28;20032;-78
2022/11/13 12:22:11;;;;;;;24.27;12.50;;;;;;;;;;5031717;28;20030;-77
2022/11/13 12:24:56;;;;;;;21.55;12.57;;;;;;;;;;5031807;28;20082;-77
2022/11/13 12:27:31;;;;;;;22.52;11.90;;;;;;;;;;5066010;28;20020;-78
2022/11/13 12:30:17;;;;;;;19.30;12.70;;;;;;;;;;5058657;28;20035;-77
2022/11/13 12:32:46;;;;;;;18.00;12.90;;;;;;;;;;5059921;28;20025;-76
2022/11/13 12:35:16;;;;;;;19.80;12.63;;;;;;;;;;5070977;28;20024;-78
2022/11/13 12:37:46;;;;;;;23.60;13.30;;;;;;;;;;5061762;28;20017;-81
2022/11/13 12:40:18;;;;;;;19.40;12.98;;;;;;;;;;5053120;28;20116;-77
2022/11/13 12:42:53;;;;;;;18.80;13.05;;;;;;;;;;5065346;28;20479;-79
2022/11/13 12:45:25;;;;;;;19.17;12.35;;;;;;;;;;5050631;28;20449;-78
2022/11/13 12:47:51;;;;;;;20.25;13.52;;;;;;;;;;5049751;28;20013;-78
2022/11/13 12:50:20;;;;;;;20.98;14.00;;;;;;;;;;5071212;28;20108;-78
2022/11/13 12:52:56;;;;;;;19.33;12.43;;;;;;;;;;5068860;28;20067;-77
2022/11/13 12:55:24;;;;;;;18.23;12.32;;;;;;;;;;5071439;28;20039;-76
2022/11/13 12:57:50;;;;;;;23.13;13.10;;;;;;;;;;5070059;28;20013;-78
2022/11/13 13:00:25;;;;;;;18.73;12.35;;;;;;;;;;5074104;28;20032;-80
2022/11/13 13:03:00;;;;;;;18.13;12.73;;;;;;;;;;5081951;28;20044;-78
2022/11/13 13:05:29;;;;;;;16.92;11.50;;;;;;;;;;5082370;28;20028;-76
2022/11/13 13:08:10;;;;;;;19.02;11.82;;;;;;;;;;5061752;28;20107;-76
2022/11/13 13:10:45;;;;;;;16.65;10.98;;;;;;;;;;5077569;28;20020;-77
2022/11/13 13:13:24;;;;;;;17.35;10.73;;;;;;;;;;5065625;28;20495;-77
2022/11/13 13:15:54;;;;;;;17.65;10.68;;;;;;;;;;5038359;28;20037;-76
2022/11/13 13:18:20;;;;;;;17.27;11.20;;;;;;;;;;5041963;28;20025;-77
2022/11/13 13:20:58;;;;;;;16.30;10.43;;;;;;;;;;5034880;28;20045;-75
2022/11/13 13:23:29;;;;;;;16.33;10.77;;;;;;;;;;5034754;28;20030;-77
2022/11/13 13:26:14;;;;;;;18.27;11.13;;;;;;;;;;5034772;28;20037;-76
2022/11/13 13:28:41;;;;;;;17.98;11.95;;;;;;;;;;5033743;28;20029;-77
2022/11/13 13:31:19;;;;;;;16.60;10.35;;;;;;;;;;5049646;28;20026;-74
2022/11/13 13:33:48;;;;;;;18.05;11.23;;;;;;;;;;5049969;28;20029;-76
2022/11/13 13:36:14;;;;;;;19.52;11.95;;;;;;;;;;5050097;28;20026;-78
2022/11/13 13:39:04;;;;;;;18.15;11.32;;;;;;;;;;5040104;28;20048;-75
2022/11/13 13:41:41;;;;;;;20.60;13.73;;;;;;;;;;4990224;28;20128;-77
2022/11/13 13:44:10;;;;;;;17.33;11.75;;;;;;;;;;5054216;28;20434;-76
2022/11/13 13:46:36;;;;;;;18.63;11.23;;;;;;;;;;5054524;28;20073;-78
2022/11/13 13:49:05;;;;;;;16.92;10.95;;;;;;;;;;5042507;28;20033;-77
2022/11/13 13:51:34;;;;;;;22.58;12.75;;;;;;;;;;5052880;28;20029;-78
2022/11/13 13:54:01;;;;;;;23.05;13.68;;;;;;;;;;5052143;28;20029;-76
2022/11/13 13:56:27;;;;;;;19.65;11.82;;;;;;;;;;5053935;28;20055;-78
2022/11/13 13:58:54;;;;;;;18.90;11.70;;;;;;;;;;5054038;28;20033;-77
2022/11/13 14:01:33;;;;;;;22.15;12.82;;;;;;;;;;5054360;28;20149;-77
2022/11/13 14:04:03;;;;;;;23.45;13.32;;;;;;;;;;5053524;28;20032;-77
2022/11/13 14:06:29;;;;;;;19.23;12.87;;;;;;;;;;5053172;28;20082;-77
2022/11/13 14:08:55;;;;;;;21.02;13.48;;;;;;;;;;5053602;28;20017;-77
2022/11/13 14:11:28;;;;;;;24.23;14.55;;;;;;;;;;5054199;28;20029;-77
2022/11/13 14:13:55;;;;;;;20.55;13.15;;;;;;;;;;5053787;28;20394;-76
2022/11/13 14:16:21;;;;;;;24.05;14.75;;;;;;;;;;5056460;28;20055;-77
2022/11/13 14:18:47;;;;;;;22.00;14.82;;;;;;;;;;5060471;28;20112;-75
2022/11/13 14:21:23;;;;;;;21.13;14.35;;;;;;;;;;5062655;28;20078;-75
2022/11/13 14:23:51;;;;;;;21.58;14.35;;;;;;;;;;5061281;28;20013;-76
2022/11/13 14:26:17;;;;;;;21.85;14.82;;;;;;;;;;5056292;28;20420;-75
2022/11/13 14:28:43;;;;;;;25.67;15.68;;;;;;;;;;5055277;28;20025;-77
2022/11/13 14:31:11;;;;;;;27.20;18.08;;;;;;;;;;5053432;28;20123;-77
2022/11/13 14:33:43;;;;;;;28.40;18.05;;;;;;;;;;5054322;28;20032;-77
2022/11/13 14:36:10;;;;;;;24.98;16.83;;;;;;;;;;5053816;28;20398;-76